Decoded Metar for LFST (STRASSBOURG in FRANCE) (IATA:SXB) | Meteo·Mobile Aviation Weather
aviador You're here:

LFST Decoded Metar

STRASSBOURG in FRANCE
Report Time2018-08-21 15:30:00
UTC Time2018-08-21 16:06:07
Flight Rules vfr VFR
Wind030° at 03 kt
W.Decomp.*RWY 05: 2.8 kt HW 1 kt LCW
W.Rank030° ranks 5
Current wind is below 030° avg. (7.2)
Visibility9999 m
Phenomena:N/A
Clouds:N/A
Expected CloudBase > 6,000 ft AGL from Temp-Dew spread
CeilingNone
Temp31°C (ISA +17)
Dew Point16°C (40% RH)
Heat Index30.9°C
QNH1017 hPa
Density Alt2,559 ft
Elevation505 ft
Report Wrong Elevation
Raw Report
METAR LFST 211530Z AUTO 03003KT 350V080 CAVOK 31/16 Q1017 NOSIG=

Extra information for LFST:More info

Metar Taf Metar & Taf Last 4 Metars F.Rules Stats Wind Profile Meteogram Temp Stats Airport Information Weather charts Add Link Nearby VenuesMetar ALERT Operation Metar Decoded Social comments